Time;durP1;ratioP1;P1;durP2;ratioP2;P2;SDS_P1;SDS_P2;PMS_P1;PMS_P2;Temp;Humidity;BMP_temperature;BMP_pressure;BME280_temperature;BME280_humidity;BME280_pressure;Samples;Min_cycle;Max_cycle;Signal;HPM_P1;HPM_P2
2023/09/04 00:00:33;;;;;;;35.63;14.93;;;16.80;99.90;;;;;;5101891;28;20107;-83
2023/09/04 00:03:00;;;;;;;35.22;14.38;;;16.80;99.90;;;;;;5094862;28;20106;-81
2023/09/04 00:05:27;;;;;;;36.90;15.23;;;16.80;99.90;;;;;;5086540;28;20437;-81
2023/09/04 00:07:54;;;;;;;34.53;13.63;;;16.80;99.90;;;;;;5094585;28;20087;-81
2023/09/04 00:10:21;;;;;;;35.80;13.70;;;16.80;99.90;;;;;;5060923;28;20041;-81
2023/09/04 00:12:48;;;;;;;41.97;15.25;;;16.80;99.90;;;;;;5077569;28;20072;-81
2023/09/04 00:15:14;;;;;;;39.60;14.48;;;16.80;99.90;;;;;;5097026;28;20070;-82
2023/09/04 00:17:41;;;;;;;40.28;15.80;;;16.80;99.90;;;;;;5097929;28;20040;-82
2023/09/04 00:20:08;;;;;;;33.28;14.35;;;16.80;99.90;;;;;;5079337;28;20143;-81
2023/09/04 00:22:35;;;;;;;37.63;15.55;;;16.80;99.90;;;;;;5086282;28;20055;-81
2023/09/04 00:25:02;;;;;;;35.05;14.63;;;16.70;99.90;;;;;;5093955;28;20045;-81
2023/09/04 00:27:31;;;;;;;28.90;12.45;;;16.80;99.90;;;;;;5087516;28;20463;-82
2023/09/04 00:29:57;;;;;;;28.33;11.30;;;16.70;99.90;;;;;;5073877;28;20078;-81
2023/09/04 00:32:24;;;;;;;34.75;13.90;;;16.70;99.90;;;;;;5083993;28;20051;-81
2023/09/04 00:34:51;;;;;;;36.90;14.65;;;16.70;99.90;;;;;;5079018;28;20055;-80
2023/09/04 00:37:18;;;;;;;37.85;14.05;;;16.60;99.90;;;;;;5082022;28;20068;-79
2023/09/04 00:39:44;;;;;;;33.92;13.77;;;16.70;99.90;;;;;;5096574;28;20105;-82
2023/09/04 00:42:13;;;;;;;34.42;14.02;;;16.60;99.90;;;;;;5078219;28;20463;-81
2023/09/04 00:44:43;;;;;;;31.40;14.15;;;16.60;99.90;;;;;;5068013;28;20047;-81
2023/09/04 00:47:13;;;;;;;36.58;15.95;;;16.60;99.90;;;;;;5092617;28;20370;-83
2023/09/04 00:49:40;;;;;;;41.05;16.55;;;16.60;99.90;;;;;;5082584;28;20074;-81
2023/09/04 00:52:07;;;;;;;44.03;17.40;;;16.60;99.90;;;;;;5091498;28;20462;-81
2023/09/04 00:54:34;;;;;;;48.67;16.50;;;16.60;99.90;;;;;;5091268;28;20051;-80
2023/09/04 00:57:04;;;;;;;42.35;17.95;;;16.60;99.90;;;;;;5087066;28;20055;-80
2023/09/04 00:59:30;;;;;;;42.90;17.55;;;16.60;99.90;;;;;;5094806;28;20163;-81
2023/09/04 01:01:57;;;;;;;42.55;17.83;;;16.60;99.90;;;;;;5095284;28;20122;-80
2023/09/04 01:04:24;;;;;;;43.25;16.98;;;16.60;99.90;;;;;;5091056;28;20444;-82
2023/09/04 01:06:52;;;;;;;49.65;17.38;;;16.50;99.90;;;;;;5095130;28;20470;-82
2023/09/04 01:09:20;;;;;;;42.67;17.42;;;16.50;99.90;;;;;;5079204;28;20067;-80
2023/09/04 01:11:46;;;;;;;45.33;17.67;;;16.50;99.90;;;;;;5090371;28;20052;-82
2023/09/04 01:14:13;;;;;;;41.20;17.27;;;16.50;99.90;;;;;;5070137;28;20044;-80
2023/09/04 01:16:40;;;;;;;51.42;17.98;;;16.50;99.90;;;;;;5081263;28;20074;-81
2023/09/04 01:19:10;;;;;;;53.38;19.92;;;16.50;99.90;;;;;;5097365;28;20054;-82
2023/09/04 01:21:37;;;;;;;48.72;17.35;;;16.50;99.90;;;;;;5095580;28;20048;-81
2023/09/04 01:24:03;;;;;;;61.65;20.67;;;16.60;99.90;;;;;;5096460;28;20032;-80
2023/09/04 01:26:30;;;;;;;62.47;20.55;;;16.60;99.90;;;;;;5095595;28;20051;-81
2023/09/04 01:31:42;;;;;;;69.22;22.08;;;16.70;99.90;;;;;;5095630;28;20371;-81
2023/09/04 01:34:09;;;;;;;71.18;21.85;;;16.70;99.90;;;;;;5086824;28;20386;-83
2023/09/04 01:36:36;;;;;;;70.38;21.98;;;16.80;99.90;;;;;;5072837;28;20048;-82
2023/09/04 01:39:03;;;;;;;79.57;23.67;;;16.80;99.90;;;;;;5072527;28;20463;-83
2023/09/04 01:41:29;;;;;;;73.15;22.60;;;16.90;99.90;;;;;;5086882;28;20459;-83
2023/09/04 01:43:56;;;;;;;71.00;22.13;;;16.90;99.90;;;;;;5077424;28;20518;-83
2023/09/04 01:46:23;;;;;;;72.22;22.23;;;17.00;99.90;;;;;;5085698;28;20059;-81
2023/09/04 01:48:51;;;;;;;69.25;21.23;;;17.00;99.90;;;;;;5077950;28;20138;-82
2023/09/04 01:51:18;;;;;;;82.35;22.45;;;17.00;99.90;;;;;;5089700;28;20117;-82
2023/09/04 01:53:44;;;;;;;130.18;23.67;;;17.00;99.90;;;;;;5086454;28;20044;-82
2023/09/04 01:56:11;;;;;;;89.22;21.27;;;17.10;99.90;;;;;;5077017;28;20041;-81
2023/09/04 01:58:38;;;;;;;80.30;21.38;;;17.10;99.90;;;;;;5084656;28;20036;-80
2023/09/04 02:01:05;;;;;;;85.32;22.65;;;17.10;99.90;;;;;;5079752;28;20082;-81
2023/09/04 02:03:32;;;;;;;79.13;22.02;;;17.20;99.90;;;;;;5095378;28;20458;-82
2023/09/04 02:05:59;;;;;;;75.53;21.35;;;17.20;99.90;;;;;;5063622;28;20047;-81
2023/09/04 02:08:28;;;;;;;68.47;19.73;;;17.20;99.90;;;;;;5088225;28;20090;-81
2023/09/04 02:10:54;;;;;;;78.38;23.02;;;17.20;99.90;;;;;;5088751;28;20036;-82
2023/09/04 02:13:21;;;;;;;81.53;22.05;;;17.20;99.90;;;;;;5095519;28;20051;-80
2023/09/04 02:15:48;;;;;;;76.38;22.00;;;17.30;99.90;;;;;;5077494;28;20059;-81
2023/09/04 02:18:15;;;;;;;80.32;22.08;;;17.30;99.90;;;;;;5091288;28;20045;-82
2023/09/04 02:20:42;;;;;;;84.30;22.45;;;17.30;99.90;;;;;;5057011;28;20049;-82
2023/09/04 02:23:09;;;;;;;74.63;21.27;;;17.30;99.90;;;;;;5072789;28;20098;-80
2023/09/04 02:25:35;;;;;;;78.60;23.23;;;17.40;99.90;;;;;;5094260;28;20044;-82
2023/09/04 02:28:02;;;;;;;71.55;22.50;;;17.40;99.90;;;;;;5094696;28;20040;-81
2023/09/04 02:30:29;;;;;;;73.18;23.25;;;17.40;99.90;;;;;;5088541;28;20040;-79
2023/09/04 02:32:58;;;;;;;70.07;23.05;;;17.50;99.90;;;;;;5069593;28;20470;-82
2023/09/04 02:35:26;;;;;;;70.97;24.08;;;17.50;99.90;;;;;;5093537;28;20129;-79
2023/09/04 02:37:53;;;;;;;76.22;23.35;;;17.50;99.90;;;;;;5094119;28;20040;-81
2023/09/04 02:40:20;;;;;;;75.68;23.15;;;17.50;99.90;;;;;;5076379;28;20044;-82
2023/09/04 02:42:47;;;;;;;76.05;22.40;;;17.50;99.90;;;;;;5069186;28;20432;-79
2023/09/04 02:45:13;;;;;;;76.60;20.92;;;17.50;99.90;;;;;;5089514;28;20375;-80
2023/09/04 02:47:41;;;;;;;73.15;18.98;;;17.50;99.90;;;;;;5094263;28;20097;-81
2023/09/04 02:50:08;;;;;;;69.53;21.13;;;17.50;99.90;;;;;;5093000;28;20137;-82
2023/09/04 02:52:35;;;;;;;70.03;21.17;;;17.50;99.90;;;;;;5053032;28;20437;-82
2023/09/04 02:55:02;;;;;;;79.22;21.35;;;17.50;99.90;;;;;;5063040;28;20045;-80
2023/09/04 02:57:29;;;;;;;69.88;21.92;;;17.50;99.90;;;;;;5056754;28;20044;-80
2023/09/04 02:59:56;;;;;;;70.10;20.80;;;17.60;99.90;;;;;;5067904;28;20044;-82
2023/09/04 03:02:23;;;;;;;77.28;21.42;;;17.60;99.90;;;;;;5065846;28;20123;-82
2023/09/04 03:04:50;;;;;;;71.88;20.33;;;17.60;99.90;;;;;;5052566;28;20080;-82
2023/09/04 03:07:17;;;;;;;78.57;22.50;;;17.60;99.90;;;;;;5047086;28;20136;-81
2023/09/04 03:09:44;;;;;;;77.30;20.77;;;17.60;99.90;;;;;;5057070;28;20036;-82
2023/09/04 03:12:11;;;;;;;72.47;21.13;;;17.50;99.90;;;;;;5044182;28;20068;-80
2023/09/04 03:14:38;;;;;;;77.85;20.42;;;17.50;99.90;;;;;;5034119;28;20049;-82
2023/09/04 03:17:06;;;;;;;77.32;21.20;;;17.50;99.90;;;;;;5039762;28;20045;-79
2023/09/04 03:19:32;;;;;;;67.18;21.50;;;17.50;99.90;;;;;;5040819;28;20063;-81
2023/09/04 03:21:59;;;;;;;63.90;20.15;;;17.60;99.90;;;;;;5056345;28;20123;-80
2023/09/04 03:24:26;;;;;;;74.68;20.63;;;17.60;99.90;;;;;;5073604;28;20064;-81
2023/09/04 03:26:53;;;;;;;64.53;19.05;;;17.60;99.90;;;;;;5042402;28;20450;-82
2023/09/04 03:29:20;;;;;;;66.55;20.27;;;17.60;99.90;;;;;;5049121;28;20519;-80
2023/09/04 03:31:48;;;;;;;71.97;21.80;;;17.60;99.90;;;;;;5042384;28;20076;-83
2023/09/04 03:34:14;;;;;;;77.85;20.75;;;17.60;99.90;;;;;;5064971;28;20056;-82
2023/09/04 03:36:41;;;;;;;71.93;19.65;;;17.70;99.90;;;;;;5050622;28;20540;-83
2023/09/04 03:39:08;;;;;;;67.47;20.73;;;17.70;99.90;;;;;;5044169;28;20059;-82
2023/09/04 03:41:35;;;;;;;73.47;22.02;;;17.70;99.90;;;;;;5073605;28;20482;-81
2023/09/04 03:44:01;;;;;;;71.82;20.40;;;17.70;99.90;;;;;;5074238;28;20044;-82
2023/09/04 03:46:28;;;;;;;65.25;19.48;;;17.70;99.90;;;;;;5044502;28;20049;-81
2023/09/04 03:48:57;;;;;;;63.15;20.55;;;17.70;99.90;;;;;;5054382;28;20041;-80
2023/09/04 03:51:24;;;;;;;66.78;21.02;;;17.70;99.90;;;;;;5070384;28;20048;-80
2023/09/04 03:53:51;;;;;;;74.85;20.75;;;17.70;99.90;;;;;;5085298;28;20067;-80
2023/09/04 03:56:18;;;;;;;67.85;22.38;;;17.80;99.90;;;;;;5088623;28;20064;-82
2023/09/04 04:01:31;;;;;;;78.75;22.48;;;17.80;99.90;;;;;;5073131;28;20048;-82
2023/09/04 04:04:01;;;;;;;84.65;21.98;;;17.80;99.90;;;;;;5081147;28;20048;-82
2023/09/04 04:06:28;;;;;;;80.13;22.90;;;17.80;99.90;;;;;;5092132;28;20074;-81
2023/09/04 04:08:55;;;;;;;90.43;23.55;;;17.80;99.90;;;;;;5080315;28;20041;-80
2023/09/04 04:11:22;;;;;;;75.95;22.30;;;17.70;99.90;;;;;;5087473;28;20522;-81
2023/09/04 04:13:50;;;;;;;81.55;22.98;;;17.70;99.90;;;;;;5055698;28;20132;-80
2023/09/04 04:16:17;;;;;;;98.32;23.55;;;17.70;99.90;;;;;;5087968;28;20059;-82
2023/09/04 04:18:44;;;;;;;81.80;22.67;;;17.70;99.90;;;;;;5076657;28;20414;-80
2023/09/04 04:21:10;;;;;;;74.78;21.17;;;17.80;99.90;;;;;;5062572;28;20044;-81
2023/09/04 04:23:37;;;;;;;77.43;24.27;;;17.70;99.90;;;;;;5093440;28;20071;-80
2023/09/04 04:26:04;;;;;;;77.15;22.15;;;17.80;99.90;;;;;;5076021;28;20101;-81
2023/09/04 04:28:31;;;;;;;72.47;21.35;;;17.70;99.90;;;;;;5095139;28;20043;-81
2023/09/04 04:30:58;;;;;;;78.97;20.73;;;17.80;99.90;;;;;;5070001;28;20040;-82
2023/09/04 04:33:25;;;;;;;78.82;20.85;;;17.80;99.90;;;;;;5094214;28;20366;-80
2023/09/04 04:35:53;;;;;;;74.47;21.77;;;17.80;99.90;;;;;;5087958;28;20048;-81
2023/09/04 04:38:22;;;;;;;81.13;21.55;;;17.80;99.90;;;;;;5090749;28;20047;-82
2023/09/04 04:40:49;;;;;;;108.15;20.98;;;17.80;99.90;;;;;;5078993;28;20040;-82
2023/09/04 04:43:16;;;;;;;70.65;18.85;;;17.80;99.90;;;;;;5076225;28;20044;-81
2023/09/04 04:45:44;;;;;;;92.88;21.13;;;17.80;99.90;;;;;;5081139;28;20055;-82
2023/09/04 04:48:13;;;;;;;73.53;19.63;;;17.80;99.90;;;;;;5067122;28;20128;-82
2023/09/04 04:50:40;;;;;;;84.15;20.08;;;17.80;99.90;;;;;;5090109;28;20048;-82
2023/09/04 04:53:07;;;;;;;69.68;19.30;;;17.80;99.90;;;;;;5059153;28;20418;-82
2023/09/04 04:55:33;;;;;;;72.88;18.98;;;17.80;99.90;;;;;;5077037;28;20045;-80
2023/09/04 04:58:02;;;;;;;75.28;19.60;;;17.80;99.90;;;;;;5094808;28;20055;-80
2023/09/04 05:00:29;;;;;;;71.82;20.27;;;17.80;99.90;;;;;;5085794;28;20045;-79
2023/09/04 05:02:56;;;;;;;65.95;18.85;;;17.80;99.90;;;;;;5079758;28;20070;-82
2023/09/04 05:05:25;;;;;;;68.53;18.48;;;17.80;99.90;;;;;;5088105;28;20156;-79
2023/09/04 05:07:53;;;;;;;70.82;20.67;;;17.80;99.90;;;;;;5076665;28;20046;-82
2023/09/04 05:10:22;;;;;;;64.72;18.95;;;17.80;99.90;;;;;;5075895;28;20036;-79
2023/09/04 05:12:50;;;;;;;80.50;19.85;;;17.90;99.90;;;;;;5060007;28;20090;-79
2023/09/04 05:15:18;;;;;;;70.95;19.70;;;17.90;99.90;;;;;;5078266;28;20089;-80
2023/09/04 05:17:45;;;;;;;73.47;20.25;;;17.90;99.90;;;;;;5075314;28;20041;-81
2023/09/04 05:20:11;;;;;;;66.30;19.02;;;17.90;99.90;;;;;;5094325;28;20075;-82
2023/09/04 05:22:38;;;;;;;64.10;18.70;;;17.80;99.90;;;;;;5079194;28;20044;-81
2023/09/04 05:25:05;;;;;;;66.90;18.35;;;17.90;99.90;;;;;;5090169;28;20444;-82
2023/09/04 05:27:33;;;;;;;70.47;19.80;;;17.90;99.90;;;;;;5090007;28;20470;-83
2023/09/04 05:30:00;;;;;;;64.35;18.40;;;17.90;99.90;;;;;;5081139;28;20048;-82
2023/09/04 05:32:26;;;;;;;58.85;18.08;;;17.90;99.90;;;;;;5095703;28;20477;-81
2023/09/04 05:34:53;;;;;;;58.33;18.02;;;17.90;99.90;;;;;;5094844;28;20131;-79
2023/09/04 05:37:20;;;;;;;67.07;18.55;;;18.00;99.90;;;;;;5095217;28;20028;-82
2023/09/04 05:39:47;;;;;;;72.30;18.60;;;18.10;99.90;;;;;;5094804;28;20463;-82
2023/09/04 05:42:15;;;;;;;73.97;21.02;;;18.10;99.90;;;;;;5091376;28;20467;-82
2023/09/04 05:44:41;;;;;;;67.95;19.35;;;18.10;99.90;;;;;;5075955;28;20379;-80
2023/09/04 05:47:09;;;;;;;65.63;19.23;;;18.10;99.90;;;;;;5077014;28;20118;-81
2023/09/04 05:49:36;;;;;;;68.38;19.70;;;18.10;99.90;;;;;;5095407;28;20055;-82
2023/09/04 05:52:03;;;;;;;69.53;20.92;;;18.10;99.90;;;;;;5079564;28;20094;-80
2023/09/04 05:54:30;;;;;;;66.68;18.63;;;18.10;99.90;;;;;;5092083;28;20036;-81
2023/09/04 05:56:57;;;;;;;64.13;19.10;;;18.00;99.90;;;;;;5094676;28;20497;-81
2023/09/04 05:59:24;;;;;;;74.50;18.70;;;18.00;99.90;;;;;;5093975;28;20040;-79
2023/09/04 06:01:51;;;;;;;60.30;18.15;;;17.90;99.90;;;;;;5081925;28;20062;-79
2023/09/04 06:04:20;;;;;;;55.05;17.13;;;17.90;99.90;;;;;;5081412;28;20131;-81
2023/09/04 06:06:50;;;;;;;66.10;16.83;;;17.90;99.90;;;;;;5081877;28;20122;-83
2023/09/04 06:09:17;;;;;;;67.32;17.30;;;17.90;99.90;;;;;;5095207;28;20032;-79
2023/09/04 06:11:44;;;;;;;64.63;19.33;;;17.90;99.90;;;;;;5096239;28;20120;-82
2023/09/04 06:14:11;;;;;;;52.60;16.80;;;18.00;99.90;;;;;;5094070;28;20115;-80
2023/09/04 06:16:37;;;;;;;55.55;17.73;;;18.00;99.90;;;;;;5088155;28;20110;-80
2023/09/04 06:19:04;;;;;;;56.83;16.05;;;18.00;99.90;;;;;;5084635;28;20047;-83
2023/09/04 06:21:31;;;;;;;53.42;15.85;;;18.00;99.90;;;;;;5094580;28;20173;-82
2023/09/04 06:23:58;;;;;;;55.38;17.92;;;18.00;99.90;;;;;;5095380;28;20055;-80
2023/09/04 06:26:25;;;;;;;52.05;16.50;;;18.10;99.90;;;;;;5077595;28;20109;-81
2023/09/04 06:28:53;;;;;;;58.72;16.23;;;18.10;99.90;;;;;;5094652;28;20460;-79
2023/09/04 06:31:19;;;;;;;54.53;18.23;;;18.10;99.90;;;;;;5095427;28;20036;-80
2023/09/04 06:33:47;;;;;;;53.22;16.73;;;18.10;99.90;;;;;;5094330;28;20055;-80
2023/09/04 06:36:14;;;;;;;52.28;16.05;;;18.20;99.90;;;;;;5095234;28;20442;-82
2023/09/04 06:38:43;;;;;;;55.63;18.67;;;18.20;99.90;;;;;;5094970;28;20063;-80
2023/09/04 06:41:12;;;;;;;59.33;17.30;;;18.30;99.90;;;;;;5084289;28;20079;-81
2023/09/04 06:43:38;;;;;;;56.22;17.98;;;18.40;99.90;;;;;;5074004;28;20060;-83
2023/09/04 06:46:05;;;;;;;50.15;17.10;;;18.40;99.90;;;;;;5082030;28;20505;-82
2023/09/04 06:48:34;;;;;;;50.15;16.83;;;18.50;99.90;;;;;;5092796;28;20044;-80
2023/09/04 06:51:02;;;;;;;50.08;16.42;;;18.50;99.90;;;;;;5085594;28;20075;-82
2023/09/04 06:53:29;;;;;;;52.08;17.35;;;18.60;99.90;;;;;;5052966;28;20048;-80
2023/09/04 06:55:56;;;;;;;56.10;18.73;;;18.70;99.90;;;;;;5037186;28;20045;-83
2023/09/04 06:58:26;;;;;;;48.20;17.50;;;18.80;99.90;;;;;;5062289;28;20086;-79
2023/09/04 07:00:53;;;;;;;48.90;17.83;;;18.90;99.90;;;;;;5042278;28;20140;-79
2023/09/04 07:03:19;;;;;;;46.22;16.23;;;19.00;99.90;;;;;;5037147;28;20108;-80
2023/09/04 07:05:47;;;;;;;44.17;16.15;;;19.20;99.90;;;;;;5054528;28;20352;-80
2023/09/04 07:08:13;;;;;;;46.10;17.05;;;19.30;99.90;;;;;;5054966;28;20066;-82
2023/09/04 07:10:40;;;;;;;45.30;16.35;;;19.40;99.90;;;;;;5057127;28;20032;-82
2023/09/04 07:13:07;;;;;;;44.92;16.23;;;19.40;99.90;;;;;;5037304;28;20047;-80
2023/09/04 07:15:33;;;;;;;45.33;15.73;;;19.50;99.90;;;;;;5054226;28;20052;-80
2023/09/04 07:18:00;;;;;;;47.38;16.98;;;19.60;99.90;;;;;;5055490;28;20037;-81
2023/09/04 07:20:27;;;;;;;49.58;15.50;;;19.70;99.90;;;;;;5049038;28;20041;-80
2023/09/04 07:22:54;;;;;;;46.40;16.40;;;19.80;99.90;;;;;;5020855;28;20094;-81
2023/09/04 07:25:36;;;;;;;;;;;19.80;99.90;;;;;;5047146;28;20490;-83
2023/09/04 07:28:03;;;;;;;40.92;15.85;;;19.90;99.90;;;;;;5055916;28;20351;-80
2023/09/04 07:30:30;;;;;;;42.70;16.63;;;20.00;99.90;;;;;;5060836;28;20064;-82
2023/09/04 07:32:56;;;;;;;44.10;17.15;;;20.10;99.90;;;;;;5056892;28;20041;-79
2023/09/04 07:35:23;;;;;;;43.97;15.15;;;20.20;99.90;;;;;;5079030;28;20073;-83
2023/09/04 07:37:51;;;;;;;39.13;16.15;;;20.30;99.90;;;;;;5047486;28;20094;-81
2023/09/04 07:40:18;;;;;;;36.17;15.20;;;20.40;99.90;;;;;;5059676;28;20056;-80
2023/09/04 07:42:46;;;;;;;34.67;15.52;;;20.40;99.90;;;;;;5056421;28;20033;-83
2023/09/04 07:45:12;;;;;;;38.75;15.68;;;20.50;99.90;;;;;;5041522;28;20037;-80
2023/09/04 07:47:43;;;;;;;40.80;15.95;;;20.60;99.90;;;;;;5019748;28;20076;-88
2023/09/04 07:50:11;;;;;;;32.00;14.77;;;20.70;99.90;;;;;;5072070;28;20135;-85
2023/09/04 07:52:37;;;;;;;37.88;15.00;;;20.80;99.90;;;;;;5041529;28;20131;-85
2023/09/04 07:55:04;;;;;;;39.20;14.63;;;21.00;99.90;;;;;;5044546;28;20045;-82
2023/09/04 07:57:33;;;;;;;39.50;16.17;;;21.10;99.90;;;;;;5054970;28;20044;-85
2023/09/04 07:59:59;;;;;;;37.22;15.32;;;21.20;99.90;;;;;;5055769;28;20056;-81
2023/09/04 08:02:26;;;;;;;32.15;13.15;;;21.30;99.90;;;;;;5062967;28;20048;-85
2023/09/04 08:04:53;;;;;;;30.27;13.30;;;21.40;99.90;;;;;;5049372;28;20371;-80
2023/09/04 08:07:20;;;;;;;34.00;14.65;;;21.60;99.90;;;;;;5031720;28;20041;-82
2023/09/04 08:09:46;;;;;;;31.83;15.85;;;21.70;99.90;;;;;;5071525;28;20045;-82
2023/09/04 08:12:13;;;;;;;29.65;13.43;;;21.80;99.90;;;;;;5066699;28;20129;-80
2023/09/04 08:14:40;;;;;;;28.52;12.65;;;22.00;99.90;;;;;;5063430;28;20039;-81
2023/09/04 08:17:06;;;;;;;31.95;15.27;;;22.20;99.90;;;;;;5064917;28;20052;-81
2023/09/04 08:19:33;;;;;;;26.20;13.80;;;22.30;99.90;;;;;;5077485;28;20543;-81
2023/09/04 08:22:00;;;;;;;25.85;12.23;;;22.40;99.90;;;;;;5062186;28;20041;-82
2023/09/04 08:24:27;;;;;;;34.13;13.10;;;22.50;99.90;;;;;;5064372;28;20068;-82
2023/09/04 08:26:53;;;;;;;26.50;11.85;;;22.60;99.90;;;;;;5052485;28;20037;-82
2023/09/04 08:29:20;;;;;;;24.52;10.82;;;22.80;99.90;;;;;;5039997;28;20052;-82
2023/09/04 08:31:47;;;;;;;26.92;13.02;;;22.90;99.90;;;;;;5040008;28;20421;-81
2023/09/04 08:34:13;;;;;;;23.40;12.65;;;22.90;99.90;;;;;;5047263;28;20115;-84
2023/09/04 08:36:40;;;;;;;19.92;10.77;;;22.90;99.90;;;;;;5076350;28;20037;-82
2023/09/04 08:39:08;;;;;;;21.75;10.80;;;23.10;99.90;;;;;;5057156;28;20049;-83
2023/09/04 08:41:35;;;;;;;18.63;10.02;;;23.20;99.90;;;;;;5039014;28;20080;-83
2023/09/04 08:44:01;;;;;;;16.98;8.77;;;23.30;99.90;;;;;;5071120;28;20045;-87
2023/09/04 08:46:28;;;;;;;17.35;8.15;;;23.40;99.90;;;;;;5067706;28;20545;-85
2023/09/04 08:48:56;;;;;;;14.00;7.15;;;23.50;99.90;;;;;;5073178;28;20033;-84
2023/09/04 08:51:23;;;;;;;15.57;7.15;;;23.60;99.90;;;;;;5068787;28;20071;-84
2023/09/04 08:53:50;;;;;;;15.35;7.15;;;23.70;99.90;;;;;;5066790;28;20045;-86
2023/09/04 08:56:16;;;;;;;15.40;7.85;;;23.90;99.90;;;;;;5089928;28;20040;-86
2023/09/04 09:01:31;;;;;;;13.32;6.03;;;24.20;99.90;;;;;;5095328;28;20052;-86
2023/09/04 09:03:58;;;;;;;12.18;5.93;;;24.30;99.90;;;;;;5095834;28;20394;-83
2023/09/04 09:06:25;;;;;;;11.55;5.35;;;24.40;99.90;;;;;;5081314;28;20036;-85
2023/09/04 09:11:39;;;;;;;11.98;6.28;;;24.60;99.90;;;;;;5094348;28;20117;-85
2023/09/04 09:14:05;;;;;;;12.80;5.40;;;24.70;99.90;;;;;;5094204;28;20040;-83
2023/09/04 09:16:32;;;;;;;8.68;4.47;;;24.80;99.90;;;;;;5093556;28;20475;-86
2023/09/04 09:18:59;;;;;;;9.57;5.13;;;24.80;99.90;;;;;;5076196;28;20348;-85
2023/09/04 09:21:26;;;;;;;12.70;5.35;;;25.00;99.90;;;;;;5075920;28;20040;-86
2023/09/04 09:23:53;;;;;;;7.97;4.68;;;25.20;99.90;;;;;;5075491;28;20105;-86
2023/09/04 09:26:19;;;;;;;10.48;4.13;;;25.30;99.90;;;;;;5068574;28;20383;-87
2023/09/04 09:31:33;;;;;;;7.82;4.05;;;25.50;99.90;;;;;;5089736;28;20105;-83
2023/09/04 09:34:00;;;;;;;9.75;3.80;;;25.50;99.90;;;;;;5081880;28;20127;-86
2023/09/04 09:36:26;;;;;;;7.75;4.05;;;25.60;99.90;;;;;;5082894;28;20045;-86
2023/09/04 09:38:54;;;;;;;9.35;3.67;;;25.70;99.90;;;;;;5094272;28;20458;-84
2023/09/04 09:41:21;;;;;;;9.88;4.13;;;25.80;99.90;;;;;;5091704;28;20075;-86
2023/09/04 09:43:47;;;;;;;7.20;3.97;;;25.90;99.90;;;;;;5095155;28;20135;-85
2023/09/04 09:46:17;;;;;;;7.80;3.80;;;26.00;99.90;;;;;;5086028;28;20455;-85
2023/09/04 09:48:44;;;;;;;6.82;3.65;;;26.10;99.90;;;;;;5071209;28;20040;-87
2023/09/04 09:51:11;;;;;;;8.38;3.83;;;26.20;99.90;;;;;;5065899;28;20076;-86
2023/09/04 09:53:37;;;;;;;8.30;3.72;;;26.30;99.90;;;;;;5031189;28;20086;-85
2023/09/04 09:56:04;;;;;;;8.60;3.78;;;26.30;99.90;;;;;;5055407;28;20032;-87
2023/09/04 09:58:31;;;;;;;7.00;4.07;;;26.40;99.90;;;;;;5024496;28;20384;-84
2023/09/04 10:00:58;;;;;;;8.07;3.92;;;26.50;99.90;;;;;;5045985;28;20099;-88
2023/09/04 10:03:25;;;;;;;7.32;4.22;;;26.80;99.90;;;;;;5027558;28;20044;-87
2023/09/04 10:05:52;;;;;;;9.57;4.38;;;26.80;99.90;;;;;;5054193;28;20037;-85
2023/09/04 10:08:22;;;;;;;7.78;4.10;;;26.90;99.90;;;;;;5067385;28;20094;-84
2023/09/04 10:10:50;;;;;;;7.88;3.90;;;27.10;99.90;;;;;;5041401;28;20099;-87
2023/09/04 10:13:17;;;;;;;6.75;3.92;;;27.30;99.90;;;;;;5072446;28;20522;-87
2023/09/04 10:15:43;;;;;;;6.75;3.83;;;27.40;99.90;;;;;;5047532;28;20051;-87
2023/09/04 10:18:12;;;;;;;6.97;3.65;;;27.50;99.90;;;;;;5051462;28;20082;-88
2023/09/04 10:20:39;;;;;;;9.38;4.25;;;27.80;99.90;;;;;;5064878;28;20037;-85
2023/09/04 10:23:07;;;;;;;7.65;3.92;;;28.00;99.90;;;;;;5069613;28;20123;-85
2023/09/04 10:25:33;;;;;;;7.47;4.03;;;28.30;99.90;;;;;;5073819;28;20102;-87
2023/09/04 10:28:02;;;;;;;7.43;3.80;;;28.30;99.90;;;;;;5060614;28;20051;-87
2023/09/04 10:30:29;;;;;;;6.97;3.88;;;28.40;99.90;;;;;;5043652;28;20044;-86
2023/09/04 10:32:56;;;;;;;7.68;3.92;;;28.60;99.90;;;;;;5075099;28;20123;-83
2023/09/04 10:35:22;;;;;;;6.78;3.47;;;28.70;99.90;;;;;;5073976;28;20028;-86
2023/09/04 10:40:35;;;;;;;7.93;3.53;;;29.30;99.90;;;;;;5072790;28;20102;-86
2023/09/04 10:43:03;;;;;;;7.38;3.78;;;29.60;99.90;;;;;;5057395;28;20082;-86
2023/09/04 10:45:30;;;;;;;7.75;3.88;;;29.90;99.90;;;;;;5039885;28;20336;-85
2023/09/04 10:50:43;;;;;;;6.88;3.50;;;30.50;99.90;;;;;;5056515;28;20049;-83
2023/09/04 10:53:10;;;;;;;6.93;3.85;;;31.10;99.90;;;;;;5050478;28;20414;-87
2023/09/04 10:55:37;;;;;;;9.98;4.00;;;31.30;99.90;;;;;;5061610;28;20057;-86
2023/09/04 10:58:05;;;;;;;7.90;4.00;;;31.60;99.90;;;;;;5055935;28;20123;-83
2023/09/04 11:00:32;;;;;;;7.47;3.65;;;31.60;99.90;;;;;;5056470;28;20036;-83
2023/09/04 11:02:59;;;;;;;8.27;3.58;;;31.80;99.90;;;;;;5026432;28;20040;-84
2023/09/04 11:05:26;;;;;;;5.97;3.42;;;32.00;99.90;;;;;;5040184;28;20040;-86
2023/09/04 11:07:52;;;;;;;7.63;3.40;;;32.20;99.90;;;;;;5068614;28;20467;-83
2023/09/04 11:10:23;;;;;;;7.30;3.78;;;32.40;99.90;;;;;;5074232;28;20371;-84
2023/09/04 11:12:53;;;;;;;8.90;3.90;;;32.50;99.90;;;;;;5074200;28;20089;-83
2023/09/04 11:15:20;;;;;;;7.35;3.75;;;32.60;99.90;;;;;;5055585;28;20371;-87
2023/09/04 11:17:49;;;;;;;8.48;3.92;;;32.70;99.90;;;;;;5056543;28;20052;-84
2023/09/04 11:20:17;;;;;;;7.38;3.60;;;32.80;99.90;;;;;;5055969;28;20535;-87
2023/09/04 11:22:47;;;;;;;8.57;3.67;;;32.70;99.90;;;;;;5056601;28;20045;-86
2023/09/04 11:25:14;;;;;;;7.95;4.03;;;32.90;99.90;;;;;;5021440;28;20045;-84
2023/09/04 11:30:27;;;;;;;6.93;4.00;;;33.20;99.90;;;;;;5073441;28;20068;-85
2023/09/04 11:32:54;;;;;;;8.73;3.92;;;33.40;99.90;;;;;;5040070;28;20130;-85
2023/09/04 11:35:21;;;;;;;7.00;3.80;;;33.70;99.90;;;;;;5025476;28;20139;-85
2023/09/04 11:40:51;;;;;;;7.68;3.72;;;34.10;99.90;;;;;;5064973;28;20459;-84
2023/09/04 11:43:19;;;;;;;8.13;3.90;;;33.80;99.90;;;;;;5064581;28;20069;-85
2023/09/04 11:45:45;;;;;;;7.22;4.15;;;33.70;99.90;;;;;;5071752;28;20037;-84
2023/09/04 11:48:15;;;;;;;9.73;4.28;;;34.00;99.90;;;;;;5057121;28;20456;-85
2023/09/04 11:50:42;;;;;;;8.50;4.75;;;34.30;99.90;;;;;;5071972;28;20049;-84
2023/09/04 11:53:09;;;;;;;7.07;4.32;;;34.50;99.90;;;;;;5059621;28;20037;-85
2023/09/04 11:55:35;;;;;;;8.63;4.50;;;34.60;99.90;;;;;;5047710;28;20044;-87
2023/09/04 11:58:04;;;;;;;8.10;4.07;;;34.80;99.90;;;;;;5057810;28;20109;-85
2023/09/04 12:00:31;;;;;;;7.57;4.33;;;35.00;99.90;;;;;;5042672;28;20036;-85
2023/09/04 12:02:58;;;;;;;11.82;4.50;;;35.30;99.90;;;;;;5060143;28;20064;-87
2023/09/04 12:05:25;;;;;;;8.75;4.55;;;35.20;99.90;;;;;;5049571;28;20036;-87
2023/09/04 12:07:54;;;;;;;7.20;4.18;;;35.40;99.90;;;;;;5043585;28;20122;-83
2023/09/04 12:10:21;;;;;;;8.60;4.22;;;35.40;99.90;;;;;;5065534;28;20102;-85
2023/09/04 12:12:48;;;;;;;9.38;4.00;;;35.60;99.90;;;;;;5077429;28;20063;-86
2023/09/04 12:15:14;;;;;;;8.18;4.05;;;35.50;99.70;;;;;;5056121;28;20051;-84
2023/09/04 12:17:44;;;;;;;7.55;3.83;;;35.50;99.60;;;;;;5052572;28;20050;-87
2023/09/04 12:20:11;;;;;;;7.65;4.10;;;35.50;99.80;;;;;;5071622;28;20053;-84
2023/09/04 12:22:37;;;;;;;8.23;4.35;;;35.50;99.30;;;;;;5057228;28;20442;-84
2023/09/04 12:25:04;;;;;;;8.52;4.18;;;35.40;98.80;;;;;;5056978;28;20132;-85
2023/09/04 12:30:19;;;;;;;7.95;4.15;;;35.60;99.60;;;;;;5045673;28;20048;-86
2023/09/04 12:32:46;;;;;;;8.00;4.13;;;36.10;98.60;;;;;;5077078;28;20485;-85
2023/09/04 12:35:13;;;;;;;6.68;4.30;;;36.00;98.90;;;;;;5061891;28;20078;-87
2023/09/04 12:37:40;;;;;;;8.75;4.38;;;36.10;98.60;;;;;;5076839;28;20059;-83
2023/09/04 12:40:08;;;;;;;9.10;4.35;;;36.00;98.10;;;;;;5043798;28;20063;-87
2023/09/04 12:42:36;;;;;;;7.45;4.43;;;36.10;98.00;;;;;;5023257;28;20063;-85
2023/09/04 12:45:02;;;;;;;8.98;4.70;;;36.00;97.80;;;;;;5056490;28;20107;-85
2023/09/04 12:47:30;;;;;;;10.32;4.88;;;36.30;98.10;;;;;;5076140;28;20064;-85
2023/09/04 12:49:57;;;;;;;13.65;5.20;;;36.50;98.40;;;;;;5046084;28;20037;-86
2023/09/04 12:52:24;;;;;;;9.43;4.72;;;36.80;98.80;;;;;;5075192;28;20498;-84
2023/09/04 12:54:51;;;;;;;13.70;5.15;;;36.90;98.40;;;;;;5089645;28;20067;-86
2023/09/04 13:00:04;;;;;;;14.43;5.22;;;36.70;97.60;;;;;;5096171;28;20063;-85
2023/09/04 13:02:31;;;;;;;10.18;5.85;;;36.70;98.70;;;;;;5079143;28;20044;-85